sensor_id;sensor_type;location;lat;lon;timestamp;pressure;altitude;pressure_sealevel;temperature;humidity
77537;BME280;67783;51.656;16.106;2023-05-07T00:00:17;102260.42;;;10.39;73.51
77537;BME280;67783;51.656;16.106;2023-05-07T00:03:25;102256.35;;;10.30;73.75
77537;BME280;67783;51.656;16.106;2023-05-07T00:06:28;102254.09;;;10.40;73.21
77537;BME280;67783;51.656;16.106;2023-05-07T00:09:30;102266.98;;;10.32;73.73
77537;BME280;67783;51.656;16.106;2023-05-07T00:12:35;102259.96;;;10.29;74.18
77537;BME280;67783;51.656;16.106;2023-05-07T00:15:37;102255.33;;;10.33;73.36
77537;BME280;67783;51.656;16.106;2023-05-07T00:18:38;102258.23;;;10.28;73.59
77537;BME280;67783;51.656;16.106;2023-05-07T00:21:40;102261.78;;;10.29;73.35
77537;BME280;67783;51.656;16.106;2023-05-07T00:24:41;102258.94;;;10.32;73.20
77537;BME280;67783;51.656;16.106;2023-05-07T00:27:43;102256.20;;;10.33;72.98
77537;BME280;67783;51.656;16.106;2023-05-07T00:30:45;102263.31;;;10.34;73.06
77537;BME280;67783;51.656;16.106;2023-05-07T00:33:50;102254.67;;;10.28;73.82
77537;BME280;67783;51.656;16.106;2023-05-07T00:36:52;102260.03;;;10.28;73.23
77537;BME280;67783;51.656;16.106;2023-05-07T00:39:54;102266.36;;;10.27;73.21
77537;BME280;67783;51.656;16.106;2023-05-07T00:42:56;102257.35;;;10.28;73.11
77537;BME280;67783;51.656;16.106;2023-05-07T00:46:00;102258.43;;;10.24;73.28
77537;BME280;67783;51.656;16.106;2023-05-07T00:49:11;102264.88;;;10.19;73.87
77537;BME280;67783;51.656;16.106;2023-05-07T00:52:16;102267.43;;;10.23;73.15
77537;BME280;67783;51.656;16.106;2023-05-07T00:55:18;102259.66;;;10.16;73.54
77537;BME280;67783;51.656;16.106;2023-05-07T00:58:21;102261.47;;;10.16;73.30
77537;BME280;67783;51.656;16.106;2023-05-07T01:01:23;102269.30;;;10.21;73.13
77537;BME280;67783;51.656;16.106;2023-05-07T01:04:31;102264.82;;;10.21;73.64
77537;BME280;67783;51.656;16.106;2023-05-07T01:07:34;102276.26;;;10.25;72.80
77537;BME280;67783;51.656;16.106;2023-05-07T01:10:37;102270.84;;;10.26;73.16
77537;BME280;67783;51.656;16.106;2023-05-07T01:13:44;102269.25;;;10.22;72.91
77537;BME280;67783;51.656;16.106;2023-05-07T01:16:47;102275.39;;;10.24;72.96
77537;BME280;67783;51.656;16.106;2023-05-07T01:19:52;102273.07;;;10.16;73.62
77537;BME280;67783;51.656;16.106;2023-05-07T01:22:55;102277.19;;;10.24;72.76
77537;BME280;67783;51.656;16.106;2023-05-07T01:25:57;102268.37;;;10.22;72.83
77537;BME280;67783;51.656;16.106;2023-05-07T01:28:59;102278.00;;;10.26;72.72
77537;BME280;67783;51.656;16.106;2023-05-07T01:32:01;102275.48;;;10.23;72.76
77537;BME280;67783;51.656;16.106;2023-05-07T01:35:18;102280.02;;;10.21;73.57
77537;BME280;67783;51.656;16.106;2023-05-07T01:38:22;102274.51;;;10.24;72.81
77537;BME280;67783;51.656;16.106;2023-05-07T01:41:24;102277.49;;;10.17;72.92
77537;BME280;67783;51.656;16.106;2023-05-07T01:44:27;102274.88;;;10.16;72.78
77537;BME280;67783;51.656;16.106;2023-05-07T01:47:30;102274.18;;;10.11;72.96
77537;BME280;67783;51.656;16.106;2023-05-07T01:50:34;102277.41;;;9.99;73.73
77537;BME280;67783;51.656;16.106;2023-05-07T01:53:39;102287.05;;;10.03;72.93
77537;BME280;67783;51.656;16.106;2023-05-07T01:56:46;102286.12;;;10.04;73.04
77537;BME280;67783;51.656;16.106;2023-05-07T02:00:00;102280.09;;;9.99;73.42
77537;BME280;67783;51.656;16.106;2023-05-07T02:03:03;102283.94;;;9.93;73.33
77537;BME280;67783;51.656;16.106;2023-05-07T02:06:05;102290.08;;;9.95;73.49
77537;BME280;67783;51.656;16.106;2023-05-07T02:09:07;102289.62;;;10.06;72.69
77537;BME280;67783;51.656;16.106;2023-05-07T02:12:10;102287.66;;;10.09;72.78
77537;BME280;67783;51.656;16.106;2023-05-07T02:15:21;102289.47;;;10.09;73.43
77537;BME280;67783;51.656;16.106;2023-05-07T02:18:22;102292.20;;;10.07;72.73
77537;BME280;67783;51.656;16.106;2023-05-07T02:21:24;102296.77;;;10.05;73.07
77537;BME280;67783;51.656;16.106;2023-05-07T02:24:26;102290.45;;;10.06;72.79
77537;BME280;67783;51.656;16.106;2023-05-07T02:27:27;102289.52;;;10.07;72.79
77537;BME280;67783;51.656;16.106;2023-05-07T02:30:29;102292.00;;;10.12;72.55
77537;BME280;67783;51.656;16.106;2023-05-07T02:33:31;102292.20;;;10.07;72.79
77537;BME280;67783;51.656;16.106;2023-05-07T02:36:36;102294.45;;;9.98;73.42
77537;BME280;67783;51.656;16.106;2023-05-07T02:39:37;102293.43;;;10.00;72.78
77537;BME280;67783;51.656;16.106;2023-05-07T02:42:39;102296.31;;;9.96;73.04
77537;BME280;67783;51.656;16.106;2023-05-07T02:45:40;102307.60;;;10.02;72.57
77537;BME280;67783;51.656;16.106;2023-05-07T02:48:42;102294.21;;;10.02;72.78
77537;BME280;67783;51.656;16.106;2023-05-07T02:51:44;102305.74;;;10.04;72.56
77537;BME280;67783;51.656;16.106;2023-05-07T02:54:46;102294.88;;;10.07;72.45
77537;BME280;67783;51.656;16.106;2023-05-07T02:57:50;102302.13;;;10.05;73.18
77537;BME280;67783;51.656;16.106;2023-05-07T03:00:52;102304.81;;;10.05;72.63
77537;BME280;67783;51.656;16.106;2023-05-07T03:03:55;102302.91;;;10.07;72.55
77537;BME280;67783;51.656;16.106;2023-05-07T03:06:57;102304.35;;;10.16;72.02
77537;BME280;67783;51.656;16.106;2023-05-07T03:09:58;102309.98;;;10.10;72.36
77537;BME280;67783;51.656;16.106;2023-05-07T03:13:11;102310.95;;;10.07;72.83
77537;BME280;67783;51.656;16.106;2023-05-07T03:16:13;102311.89;;;10.06;72.36
77537;BME280;67783;51.656;16.106;2023-05-07T03:19:14;102316.52;;;10.03;72.54
77537;BME280;67783;51.656;16.106;2023-05-07T03:22:16;102326.89;;;10.10;72.22
77537;BME280;67783;51.656;16.106;2023-05-07T03:25:17;102334.29;;;10.05;72.40
77537;BME280;67783;51.656;16.106;2023-05-07T03:28:19;102336.96;;;10.05;72.22
77537;BME280;67783;51.656;16.106;2023-05-07T03:31:21;102348.97;;;9.97;72.73
77537;BME280;67783;51.656;16.106;2023-05-07T03:34:26;102337.31;;;9.98;73.10
77537;BME280;67783;51.656;16.106;2023-05-07T03:37:27;102345.80;;;10.07;72.23
77537;BME280;67783;51.656;16.106;2023-05-07T03:40:29;102340.28;;;10.10;72.39
77537;BME280;67783;51.656;16.106;2023-05-07T03:43:30;102351.88;;;10.11;72.21
77537;BME280;67783;51.656;16.106;2023-05-07T03:46:33;102352.03;;;10.08;72.26
77537;BME280;67783;51.656;16.106;2023-05-07T03:49:35;102350.83;;;10.15;71.92
77537;BME280;67783;51.656;16.106;2023-05-07T03:52:36;102359.86;;;10.12;72.02
77537;BME280;67783;51.656;16.106;2023-05-07T03:55:41;102367.79;;;10.15;72.26
77537;BME280;67783;51.656;16.106;2023-05-07T03:58:43;102358.27;;;10.08;72.02
77537;BME280;67783;51.656;16.106;2023-05-07T04:01:44;102365.48;;;10.06;72.25
77537;BME280;67783;51.656;16.106;2023-05-07T04:04:48;102369.66;;;10.13;71.81
77537;BME280;67783;51.656;16.106;2023-05-07T04:07:50;102375.02;;;10.13;71.83
77537;BME280;67783;51.656;16.106;2023-05-07T04:11:02;102377.89;;;10.09;72.42
77537;BME280;67783;51.656;16.106;2023-05-07T04:14:03;102377.41;;;9.99;72.32
77537;BME280;67783;51.656;16.106;2023-05-07T04:17:05;102379.16;;;10.00;72.44
77537;BME280;67783;51.656;16.106;2023-05-07T04:20:15;102389.83;;;10.02;72.31
77537;BME280;67783;51.656;16.106;2023-05-07T04:23:17;102388.95;;;10.01;72.40
77537;BME280;67783;51.656;16.106;2023-05-07T04:26:22;102389.88;;;10.00;72.83
77537;BME280;67783;51.656;16.106;2023-05-07T04:29:25;102399.77;;;9.98;72.41
77537;BME280;67783;51.656;16.106;2023-05-07T04:32:26;102400.60;;;10.00;72.45
77537;BME280;67783;51.656;16.106;2023-05-07T04:35:30;102411.17;;;10.03;72.21
77537;BME280;67783;51.656;16.106;2023-05-07T04:38:32;102408.89;;;9.94;72.60
77537;BME280;67783;51.656;16.106;2023-05-07T04:41:43;102414.19;;;9.96;73.06
77537;BME280;67783;51.656;16.106;2023-05-07T04:44:45;102412.93;;;10.04;72.23
77537;BME280;67783;51.656;16.106;2023-05-07T04:47:46;102416.34;;;10.08;72.46
77537;BME280;67783;51.656;16.106;2023-05-07T04:50:49;102422.22;;;10.17;71.90
77537;BME280;67783;51.656;16.106;2023-05-07T04:53:51;102421.39;;;10.15;72.19
77537;BME280;67783;51.656;16.106;2023-05-07T04:56:53;102423.81;;;10.22;71.91
77537;BME280;67783;51.656;16.106;2023-05-07T04:59:54;102420.79;;;10.29;71.73
77537;BME280;67783;51.656;16.106;2023-05-07T05:02:59;102424.34;;;10.30;71.81
77537;BME280;67783;51.656;16.106;2023-05-07T05:06:00;102423.27;;;10.34;71.61
77537;BME280;67783;51.656;16.106;2023-05-07T05:09:02;102429.86;;;10.27;71.82
77537;BME280;67783;51.656;16.106;2023-05-07T05:12:05;102428.10;;;10.26;71.66
77537;BME280;67783;51.656;16.106;2023-05-07T05:15:10;102431.99;;;10.18;71.94
77537;BME280;67783;51.656;16.106;2023-05-07T05:18:20;102436.59;;;10.15;72.19
77537;BME280;67783;51.656;16.106;2023-05-07T05:21:22;102432.36;;;10.09;71.92
77537;BME280;67783;51.656;16.106;2023-05-07T05:24:23;102435.98;;;10.08;72.18
77537;BME280;67783;51.656;16.106;2023-05-07T05:27:25;102443.32;;;10.03;72.12
77537;BME280;67783;51.656;16.106;2023-05-07T05:30:27;102437.23;;;10.00;72.28
77537;BME280;67783;51.656;16.106;2023-05-07T05:33:28;102441.71;;;9.99;72.16
77537;BME280;67783;51.656;16.106;2023-05-07T05:36:30;102445.81;;;10.08;72.03
77537;BME280;67783;51.656;16.106;2023-05-07T05:39:35;102441.47;;;10.05;72.30
77537;BME280;67783;51.656;16.106;2023-05-07T05:42:37;102442.12;;;10.10;72.01
77537;BME280;67783;51.656;16.106;2023-05-07T05:45:38;102445.81;;;10.08;72.18
77537;BME280;67783;51.656;16.106;2023-05-07T05:48:40;102447.38;;;10.13;71.85
77537;BME280;67783;51.656;16.106;2023-05-07T05:51:42;102443.31;;;10.25;71.85
77537;BME280;67783;51.656;16.106;2023-05-07T05:54:44;102442.97;;;10.33;71.33
77537;BME280;67783;51.656;16.106;2023-05-07T05:57:46;102447.84;;;10.23;71.48
77537;BME280;67783;51.656;16.106;2023-05-07T06:00:51;102461.48;;;10.18;71.89
77537;BME280;67783;51.656;16.106;2023-05-07T06:03:54;102466.84;;;10.18;71.67
77537;BME280;67783;51.656;16.106;2023-05-07T06:06:55;102463.73;;;10.28;71.64
77537;BME280;67783;51.656;16.106;2023-05-07T06:09:57;102473.27;;;10.35;71.44
77537;BME280;67783;51.656;16.106;2023-05-07T06:12:59;102476.21;;;10.29;71.59
77537;BME280;67783;51.656;16.106;2023-05-07T06:16:11;102477.67;;;10.36;71.67
77537;BME280;67783;51.656;16.106;2023-05-07T06:19:13;102480.30;;;10.37;71.19
77537;BME280;67783;51.656;16.106;2023-05-07T06:22:14;102481.70;;;10.26;71.22
77537;BME280;67783;51.656;16.106;2023-05-07T06:25:16;102479.82;;;10.28;71.13
77537;BME280;67783;51.656;16.106;2023-05-07T06:28:18;102488.38;;;10.15;71.38
77537;BME280;67783;51.656;16.106;2023-05-07T06:31:20;102483.90;;;10.16;71.47
77537;BME280;67783;51.656;16.106;2023-05-07T06:34:21;102493.36;;;10.25;71.39
77537;BME280;67783;51.656;16.106;2023-05-07T06:37:26;102496.05;;;10.25;71.28
77537;BME280;67783;51.656;16.106;2023-05-07T06:40:28;102492.56;;;10.23;71.14
77537;BME280;67783;51.656;16.106;2023-05-07T06:43:33;102497.92;;;10.23;71.31
77537;BME280;67783;51.656;16.106;2023-05-07T06:46:34;102498.78;;;10.23;71.03
77537;BME280;67783;51.656;16.106;2023-05-07T06:49:36;102505.02;;;10.24;70.95
77537;BME280;67783;51.656;16.106;2023-05-07T06:52:47;102500.61;;;10.23;70.99
77537;BME280;67783;51.656;16.106;2023-05-07T06:55:48;102509.98;;;10.33;70.82
77537;BME280;67783;51.656;16.106;2023-05-07T06:58:50;102524.52;;;10.27;70.56
77537;BME280;67783;51.656;16.106;2023-05-07T07:01:51;102526.39;;;10.25;70.63
77537;BME280;67783;51.656;16.106;2023-05-07T07:04:53;102515.48;;;10.30;70.55
77537;BME280;67783;51.656;16.106;2023-05-07T07:07:55;102520.18;;;10.45;70.22
77537;BME280;67783;51.656;16.106;2023-05-07T07:10:56;102525.54;;;10.45;70.13
77537;BME280;67783;51.656;16.106;2023-05-07T07:14:02;102531.77;;;10.45;69.63
77537;BME280;67783;51.656;16.106;2023-05-07T07:17:04;102534.40;;;10.47;69.77
77537;BME280;67783;51.656;16.106;2023-05-07T07:20:07;102538.49;;;10.35;69.95
77537;BME280;67783;51.656;16.106;2023-05-07T07:23:09;102542.84;;;10.38;70.10
77537;BME280;67783;51.656;16.106;2023-05-07T07:26:10;102545.66;;;10.35;70.15
77537;BME280;67783;51.656;16.106;2023-05-07T07:29:22;102540.54;;;10.29;69.79
77537;BME280;67783;51.656;16.106;2023-05-07T07:32:27;102548.20;;;10.38;69.83
77537;BME280;67783;51.656;16.106;2023-05-07T07:35:29;102541.95;;;10.37;69.57
77537;BME280;67783;51.656;16.106;2023-05-07T07:38:31;102543.52;;;10.43;69.59
77537;BME280;67783;51.656;16.106;2023-05-07T07:41:33;102549.76;;;10.43;69.55
77537;BME280;67783;51.656;16.106;2023-05-07T07:44:43;102523.24;;;10.36;69.31
77537;BME280;67783;51.656;16.106;2023-05-07T07:47:44;102555.56;;;10.53;69.11
77537;BME280;67783;51.656;16.106;2023-05-07T07:50:49;102548.46;;;10.52;68.78
77537;BME280;67783;51.656;16.106;2023-05-07T07:53:52;102554.25;;;10.63;68.76
77537;BME280;67783;51.656;16.106;2023-05-07T07:56:54;102556.94;;;10.63;68.80
77537;BME280;67783;51.656;16.106;2023-05-07T08:00:05;102563.37;;;10.59;68.42
77537;BME280;67783;51.656;16.106;2023-05-07T08:03:11;102562.44;;;10.60;68.51
77537;BME280;67783;51.656;16.106;2023-05-07T08:06:13;102559.18;;;10.52;68.30
77537;BME280;67783;51.656;16.106;2023-05-07T08:09:15;102562.94;;;10.48;68.26
77537;BME280;67783;51.656;16.106;2023-05-07T08:12:18;102565.89;;;10.42;68.54
77537;BME280;67783;51.656;16.106;2023-05-07T08:15:24;102570.05;;;10.49;68.63
77537;BME280;67783;51.656;16.106;2023-05-07T08:18:26;102573.90;;;10.63;68.41
77537;BME280;67783;51.656;16.106;2023-05-07T08:21:30;102568.05;;;10.74;68.00
77537;BME280;67783;51.656;16.106;2023-05-07T08:24:32;102576.82;;;10.98;67.71
77537;BME280;67783;51.656;16.106;2023-05-07T08:27:33;102571.01;;;11.27;67.21
77537;BME280;67783;51.656;16.106;2023-05-07T08:30:45;102578.95;;;11.49;65.25
77537;BME280;67783;51.656;16.106;2023-05-07T08:33:47;102576.49;;;11.63;66.08
77537;BME280;67783;51.656;16.106;2023-05-07T08:36:49;102573.66;;;11.66;65.56
77537;BME280;67783;51.656;16.106;2023-05-07T08:39:51;102581.12;;;11.59;65.78
77537;BME280;67783;51.656;16.106;2023-05-07T08:42:53;102586.73;;;11.55;65.89
77537;BME280;67783;51.656;16.106;2023-05-07T08:45:55;102586.42;;;11.61;65.61
77537;BME280;67783;51.656;16.106;2023-05-07T08:48:59;102591.95;;;11.58;65.95
77537;BME280;67783;51.656;16.106;2023-05-07T08:52:05;102595.05;;;11.49;64.79
77537;BME280;67783;51.656;16.106;2023-05-07T08:55:08;102591.08;;;11.57;65.39
77537;BME280;67783;51.656;16.106;2023-05-07T08:58:10;102596.51;;;11.56;65.32
77537;BME280;67783;51.656;16.106;2023-05-07T09:01:15;102591.80;;;11.61;65.35
77537;BME280;67783;51.656;16.106;2023-05-07T09:04:18;102602.55;;;11.61;65.18
77537;BME280;67783;51.656;16.106;2023-05-07T09:07:25;102598.20;;;11.58;64.48
77537;BME280;67783;51.656;16.106;2023-05-07T09:10:29;102600.16;;;11.55;65.42
77537;BME280;67783;51.656;16.106;2023-05-07T09:13:31;102607.25;;;11.56;65.12
77537;BME280;67783;51.656;16.106;2023-05-07T09:16:32;102601.61;;;11.62;65.60
77537;BME280;67783;51.656;16.106;2023-05-07T09:19:34;102609.14;;;11.54;65.45
77537;BME280;67783;51.656;16.106;2023-05-07T09:22:46;102608.34;;;11.52;65.34
77537;BME280;67783;51.656;16.106;2023-05-07T09:25:48;102613.02;;;11.67;65.36
77537;BME280;67783;51.656;16.106;2023-05-07T09:28:50;102608.38;;;11.89;65.04
77537;BME280;67783;51.656;16.106;2023-05-07T09:31:52;102608.94;;;12.15;64.38
77537;BME280;67783;51.656;16.106;2023-05-07T09:34:54;102613.05;;;12.22;63.78
77537;BME280;67783;51.656;16.106;2023-05-07T09:37:57;102615.88;;;12.37;64.07
77537;BME280;67783;51.656;16.106;2023-05-07T09:41:04;102611.22;;;12.41;63.09
77537;BME280;67783;51.656;16.106;2023-05-07T09:44:06;102616.14;;;12.50;61.88
77537;BME280;67783;51.656;16.106;2023-05-07T09:47:08;102620.31;;;12.56;62.50
77537;BME280;67783;51.656;16.106;2023-05-07T09:50:10;102615.97;;;12.53;61.89
77537;BME280;67783;51.656;16.106;2023-05-07T09:53:14;102619.31;;;12.58;62.02
77537;BME280;67783;51.656;16.106;2023-05-07T09:56:17;102621.78;;;12.63;61.85
77537;BME280;67783;51.656;16.106;2023-05-07T09:59:25;102619.46;;;12.72;60.80
77537;BME280;67783;51.656;16.106;2023-05-07T10:02:30;102619.63;;;12.86;61.70
77537;BME280;67783;51.656;16.106;2023-05-07T10:05:36;102617.23;;;12.98;61.58
77537;BME280;67783;51.656;16.106;2023-05-07T10:08:37;102619.25;;;13.11;60.53
77537;BME280;67783;51.656;16.106;2023-05-07T10:11:40;102622.57;;;13.16;60.57
77537;BME280;67783;51.656;16.106;2023-05-07T10:14:46;102625.78;;;13.06;58.27
77537;BME280;67783;51.656;16.106;2023-05-07T10:17:49;102625.33;;;13.15;59.99
77537;BME280;67783;51.656;16.106;2023-05-07T10:20:52;102624.15;;;13.20;60.03
77537;BME280;67783;51.656;16.106;2023-05-07T10:24:04;102623.11;;;13.23;60.40
77537;BME280;67783;51.656;16.106;2023-05-07T10:27:16;102632.62;;;13.13;59.42
77537;BME280;67783;51.656;16.106;2023-05-07T10:33:33;102636.26;;;12.94;60.54
77537;BME280;67783;51.656;16.106;2023-05-07T10:36:36;102633.80;;;12.90;60.60
77537;BME280;67783;51.656;16.106;2023-05-07T10:39:46;102626.66;;;12.89;58.94
77537;BME280;67783;51.656;16.106;2023-05-07T10:42:55;102630.23;;;12.72;60.29
77537;BME280;67783;51.656;16.106;2023-05-07T10:49:12;102626.19;;;12.81;60.26
77537;BME280;67783;51.656;16.106;2023-05-07T10:52:18;102624.84;;;12.89;60.13
77537;BME280;67783;51.656;16.106;2023-05-07T10:55:21;102630.05;;;12.92;59.46
77537;BME280;67783;51.656;16.106;2023-05-07T10:58:29;102633.55;;;12.94;58.91
77537;BME280;67783;51.656;16.106;2023-05-07T11:08:11;102643.04;;;12.84;58.28
77537;BME280;67783;51.656;16.106;2023-05-07T11:11:18;102642.91;;;12.87;59.33
77537;BME280;67783;51.656;16.106;2023-05-07T11:14:47;102636.48;;;12.90;59.59
77537;BME280;67783;51.656;16.106;2023-05-07T11:20:57;102654.39;;;12.91;59.15
77537;BME280;67783;51.656;16.106;2023-05-07T11:24:00;102661.83;;;12.86;58.48
77537;BME280;67783;51.656;16.106;2023-05-07T11:27:05;102665.30;;;12.88;57.50
77537;BME280;67783;51.656;16.106;2023-05-07T11:30:07;102662.37;;;13.10;58.13
77537;BME280;67783;51.656;16.106;2023-05-07T11:33:10;102654.95;;;13.32;58.18
77537;BME280;67783;51.656;16.106;2023-05-07T11:36:12;102659.33;;;13.50;58.27
77537;BME280;67783;51.656;16.106;2023-05-07T11:39:24;102646.51;;;13.71;57.46
77537;BME280;67783;51.656;16.106;2023-05-07T11:42:33;102643.93;;;13.85;56.06
77537;BME280;67783;51.656;16.106;2023-05-07T11:45:35;102641.49;;;13.96;56.21
77537;BME280;67783;51.656;16.106;2023-05-07T11:48:38;102641.66;;;13.77;54.82
77537;BME280;67783;51.656;16.106;2023-05-07T11:51:52;102660.09;;;13.69;53.58
77537;BME280;67783;51.656;16.106;2023-05-07T11:54:56;102660.96;;;13.70;55.56
77537;BME280;67783;51.656;16.106;2023-05-07T11:57:58;102660.13;;;13.52;55.11
77537;BME280;67783;51.656;16.106;2023-05-07T12:01:00;102660.20;;;13.51;55.94
77537;BME280;67783;51.656;16.106;2023-05-07T12:04:03;102673.42;;;13.55;56.18
77537;BME280;67783;51.656;16.106;2023-05-07T12:07:13;102670.74;;;13.55;56.08
77537;BME280;67783;51.656;16.106;2023-05-07T12:10:15;102662.89;;;13.51;56.79
77537;BME280;67783;51.656;16.106;2023-05-07T12:13:22;102670.91;;;13.52;56.54
77537;BME280;67783;51.656;16.106;2023-05-07T12:16:25;102668.21;;;13.52;56.61
77537;BME280;67783;51.656;16.106;2023-05-07T12:19:28;102671.16;;;13.48;56.82
77537;BME280;67783;51.656;16.106;2023-05-07T12:22:33;102667.99;;;13.39;56.48
77537;BME280;67783;51.656;16.106;2023-05-07T12:25:37;102671.88;;;13.34;57.31
77537;BME280;67783;51.656;16.106;2023-05-07T12:28:39;102673.80;;;13.32;57.23
77537;BME280;67783;51.656;16.106;2023-05-07T12:31:42;102672.92;;;13.31;56.99
77537;BME280;67783;51.656;16.106;2023-05-07T12:34:45;102673.65;;;13.18;57.38
77537;BME280;67783;51.656;16.106;2023-05-07T12:37:58;102673.00;;;13.30;57.01
77537;BME280;67783;51.656;16.106;2023-05-07T12:41:07;102678.37;;;13.47;57.31
77537;BME280;67783;51.656;16.106;2023-05-07T12:44:09;102682.95;;;13.62;56.89
77537;BME280;67783;51.656;16.106;2023-05-07T12:47:20;102680.25;;;13.62;56.37
77537;BME280;67783;51.656;16.106;2023-05-07T12:50:24;102681.82;;;13.66;56.28
77537;BME280;67783;51.656;16.106;2023-05-07T12:53:28;102685.79;;;13.59;56.88
77537;BME280;67783;51.656;16.106;2023-05-07T12:56:31;102685.96;;;13.56;56.53
77537;BME280;67783;51.656;16.106;2023-05-07T12:59:37;102686.27;;;13.50;56.54
77537;BME280;67783;51.656;16.106;2023-05-07T13:02:42;102689.41;;;13.58;56.04
77537;BME280;67783;51.656;16.106;2023-05-07T13:05:47;102689.49;;;13.74;56.87
77537;BME280;67783;51.656;16.106;2023-05-07T13:08:48;102696.78;;;13.72;56.18
77537;BME280;67783;51.656;16.106;2023-05-07T13:11:50;102705.16;;;13.83;56.33
77537;BME280;67783;51.656;16.106;2023-05-07T13:14:51;102696.27;;;13.81;55.61
77537;BME280;67783;51.656;16.106;2023-05-07T13:18:01;102699.50;;;13.87;55.12
77537;BME280;67783;51.656;16.106;2023-05-07T13:21:04;102698.98;;;13.97;54.71
77537;BME280;67783;51.656;16.106;2023-05-07T13:24:06;102694.41;;;13.99;54.82
77537;BME280;67783;51.656;16.106;2023-05-07T13:27:08;102704.08;;;14.18;54.99
77537;BME280;67783;51.656;16.106;2023-05-07T13:30:09;102694.85;;;14.22;54.67
77537;BME280;67783;51.656;16.106;2023-05-07T13:33:22;102696.41;;;14.11;52.92
77537;BME280;67783;51.656;16.106;2023-05-07T13:36:25;102676.30;;;14.01;54.65
77537;BME280;67783;51.656;16.106;2023-05-07T13:39:29;102691.21;;;14.08;54.23
77537;BME280;67783;51.656;16.106;2023-05-07T13:42:30;102697.29;;;14.11;54.85
77537;BME280;67783;51.656;16.106;2023-05-07T13:45:32;102691.64;;;14.16;55.19
77537;BME280;67783;51.656;16.106;2023-05-07T13:48:42;102688.32;;;14.11;53.10
77537;BME280;67783;51.656;16.106;2023-05-07T13:51:44;102696.24;;;14.14;54.20
77537;BME280;67783;51.656;16.106;2023-05-07T13:54:46;102696.66;;;14.06;53.80
77537;BME280;67783;51.656;16.106;2023-05-07T13:57:51;102691.71;;;14.14;54.02
77537;BME280;67783;51.656;16.106;2023-05-07T14:00:54;102697.11;;;14.14;53.97
77537;BME280;67783;51.656;16.106;2023-05-07T14:04:04;102685.33;;;14.00;52.87
77537;BME280;67783;51.656;16.106;2023-05-07T14:07:05;102686.57;;;14.10;53.22
77537;BME280;67783;51.656;16.106;2023-05-07T14:10:08;102689.15;;;13.96;53.04
77537;BME280;67783;51.656;16.106;2023-05-07T14:13:11;102689.89;;;13.99;53.10
77537;BME280;67783;51.656;16.106;2023-05-07T14:16:13;102701.37;;;14.03;53.19
77537;BME280;67783;51.656;16.106;2023-05-07T14:19:24;102699.37;;;14.06;52.70
77537;BME280;67783;51.656;16.106;2023-05-07T14:22:25;102697.48;;;14.24;53.67
77537;BME280;67783;51.656;16.106;2023-05-07T14:25:27;102704.95;;;14.19;53.06
77537;BME280;67783;51.656;16.106;2023-05-07T14:28:28;102700.69;;;14.15;53.01
77537;BME280;67783;51.656;16.106;2023-05-07T14:31:30;102701.19;;;14.06;52.82
77537;BME280;67783;51.656;16.106;2023-05-07T14:34:32;102692.32;;;14.04;53.16
77537;BME280;67783;51.656;16.106;2023-05-07T14:39:29;102694.49;;;14.13;53.24
77537;BME280;67783;51.656;16.106;2023-05-07T14:42:31;102701.19;;;14.06;52.98
77537;BME280;67783;51.656;16.106;2023-05-07T14:45:32;102709.72;;;14.14;53.28
77537;BME280;67783;51.656;16.106;2023-05-07T14:48:34;102707.73;;;14.17;52.99
77537;BME280;67783;51.656;16.106;2023-05-07T14:51:36;102702.43;;;14.16;53.28
77537;BME280;67783;51.656;16.106;2023-05-07T14:54:38;102725.04;;;14.13;52.87
77537;BME280;67783;51.656;16.106;2023-05-07T14:57:44;102719.13;;;14.07;52.55
77537;BME280;67783;51.656;16.106;2023-05-07T15:00:46;102718.27;;;14.22;53.66
77537;BME280;67783;51.656;16.106;2023-05-07T15:03:47;102713.73;;;14.22;53.33
77537;BME280;67783;51.656;16.106;2023-05-07T15:06:49;102724.89;;;14.32;53.38
77537;BME280;67783;51.656;16.106;2023-05-07T15:09:50;102726.89;;;14.28;53.43
77537;BME280;67783;51.656;16.106;2023-05-07T15:12:52;102721.57;;;14.27;53.73
77537;BME280;67783;51.656;16.106;2023-05-07T15:15:54;102719.63;;;14.13;53.60
77537;BME280;67783;51.656;16.106;2023-05-07T15:18:59;102724.52;;;14.07;52.42
77537;BME280;67783;51.656;16.106;2023-05-07T15:22:01;102715.00;;;14.00;53.46
77537;BME280;67783;51.656;16.106;2023-05-07T15:25:06;102709.01;;;13.95;53.31
77537;BME280;67783;51.656;16.106;2023-05-07T15:28:08;102723.09;;;14.00;53.49
77537;BME280;67783;51.656;16.106;2023-05-07T15:31:09;102720.33;;;14.01;53.49
77537;BME280;67783;51.656;16.106;2023-05-07T15:34:21;102718.05;;;13.94;52.85
77537;BME280;67783;51.656;16.106;2023-05-07T15:37:24;102720.25;;;14.03;54.00
77537;BME280;67783;51.656;16.106;2023-05-07T15:40:26;102722.75;;;14.06;53.78
77537;BME280;67783;51.656;16.106;2023-05-07T15:43:28;102715.63;;;14.05;53.72
77537;BME280;67783;51.656;16.106;2023-05-07T15:46:29;102718.66;;;13.99;53.60
77537;BME280;67783;51.656;16.106;2023-05-07T15:49:41;102710.48;;;14.00;53.45
77537;BME280;67783;51.656;16.106;2023-05-07T15:52:43;102708.66;;;14.01;53.58
77537;BME280;67783;51.656;16.106;2023-05-07T15:55:47;102713.16;;;13.84;53.54
77537;BME280;67783;51.656;16.106;2023-05-07T15:58:49;102716.78;;;13.83;53.55
77537;BME280;67783;51.656;16.106;2023-05-07T16:01:50;102720.73;;;13.78;53.63
77537;BME280;67783;51.656;16.106;2023-05-07T16:05:01;102723.20;;;13.65;53.76